Time;durP1;ratioP1;P1;durP2;ratioP2;P2;SDS_P1;SDS_P2;PMS_P1;PMS_P2;Temp;Humidity;BMP_temperature;BMP_pressure;BME280_temperature;BME280_humidity;BME280_pressure;Samples;Min_cycle;Max_cycle;Signal;HPM_P1;HPM_P2
2021/05/24 00:02:19;;;;;;;3.20;1.27;;;;;;;;;;6149315;23;20196;-89
2021/05/24 00:05:25;;;;;;;2.50;1.10;;;;;;;;;;6147919;23;20176;-92
2021/05/24 00:08:29;;;;;;;2.90;1.40;;;;;;;;;;6151047;23;20156;-90
2021/05/24 00:11:35;;;;;;;5.80;1.90;;;;;;;;;;6149141;23;20168;-90
2021/05/24 00:14:40;;;;;;;2.83;1.40;;;;;;;;;;6149611;23;20181;-89
2021/05/24 00:17:44;;;;;;;5.37;1.40;;;;;;;;;;6150024;23;20175;-91
2021/05/24 00:20:50;;;;;;;4.80;1.30;;;;;;;;;;6147847;23;20196;-91
2021/05/24 00:23:56;;;;;;;2.93;1.20;;;;;;;;;;6147209;23;20175;-87
2021/05/24 00:27:01;;;;;;;2.90;1.43;;;;;;;;;;6149490;23;20169;-90
2021/05/24 00:30:06;;;;;;;1.73;1.13;;;;;;;;;;6147562;23;20632;-90
2021/05/24 00:33:11;;;;;;;2.87;1.40;;;;;;;;;;6146401;23;20169;-90
2021/05/24 00:36:16;;;;;;;3.30;1.60;;;;;;;;;;6149794;23;20160;-92
2021/05/24 00:39:21;;;;;;;4.10;1.33;;;;;;;;;;6146978;23;20176;-91
2021/05/24 00:42:26;;;;;;;2.10;1.30;;;;;;;;;;6148074;23;20212;-91
2021/05/24 00:45:31;;;;;;;3.90;1.60;;;;;;;;;;6148571;23;20216;-90
2021/05/24 00:48:35;;;;;;;4.00;1.50;;;;;;;;;;6147227;23;20187;-91
2021/05/24 00:51:40;;;;;;;2.13;1.50;;;;;;;;;;6147467;23;20172;-90
2021/05/24 00:54:44;;;;;;;2.90;1.50;;;;;;;;;;6148635;23;20173;-89
2021/05/24 00:57:50;;;;;;;1.90;1.33;;;;;;;;;;6146849;23;20200;-91
2021/05/24 01:00:55;;;;;;;4.17;1.77;;;;;;;;;;6147863;23;20630;-89
2021/05/24 01:04:00;;;;;;;2.90;1.40;;;;;;;;;;6148726;23;20274;-91
2021/05/24 01:07:05;;;;;;;2.60;1.33;;;;;;;;;;6146744;23;20168;-89
2021/05/24 01:10:10;;;;;;;4.03;1.70;;;;;;;;;;6147212;23;20172;-89
2021/05/24 01:13:16;;;;;;;3.60;1.30;;;;;;;;;;6145139;23;20525;-90
2021/05/24 01:16:21;;;;;;;2.57;1.53;;;;;;;;;;6146320;23;20156;-89
2021/05/24 01:19:25;;;;;;;2.70;1.40;;;;;;;;;;6147278;23;20608;-89
2021/05/24 01:22:33;;;;;;;8.67;1.50;;;;;;;;;;6146193;23;20196;-90
2021/05/24 01:25:38;;;;;;;4.93;1.57;;;;;;;;;;6149369;23;20192;-90
2021/05/24 01:28:43;;;;;;;3.93;1.40;;;;;;;;;;6164823;23;20636;-90
2021/05/24 01:31:48;;;;;;;5.87;1.40;;;;;;;;;;6163903;23;20164;-90
2021/05/24 01:34:54;;;;;;;2.07;1.50;;;;;;;;;;6163739;23;20280;-89
2021/05/24 01:38:00;;;;;;;3.57;1.23;;;;;;;;;;6165559;23;20197;-91
2021/05/24 01:41:04;;;;;;;3.63;1.40;;;;;;;;;;6163842;23;20195;-90
2021/05/24 01:44:10;;;;;;;2.40;1.40;;;;;;;;;;6162890;23;20240;-90
2021/05/24 01:47:15;;;;;;;6.77;1.60;;;;;;;;;;6163194;23;20172;-91
2021/05/24 01:50:19;;;;;;;2.40;1.40;;;;;;;;;;6162981;23;20229;-91
2021/05/24 01:53:25;;;;;;;2.37;1.50;;;;;;;;;;6164142;23;20228;-92
2021/05/24 01:56:29;;;;;;;3.43;1.80;;;;;;;;;;6164800;23;20180;-91
2021/05/24 01:59:34;;;;;;;2.53;1.50;;;;;;;;;;6164309;23;20459;-92
2021/05/24 02:02:40;;;;;;;6.73;1.57;;;;;;;;;;6165299;23;20192;-89
2021/05/24 02:05:44;;;;;;;5.93;1.60;;;;;;;;;;6164696;23;20288;-90
2021/05/24 02:08:50;;;;;;;5.13;1.93;;;;;;;;;;6164876;23;20180;-91
2021/05/24 02:11:54;;;;;;;3.93;2.10;;;;;;;;;;6163420;23;20169;-91
2021/05/24 02:14:59;;;;;;;3.73;2.00;;;;;;;;;;6164346;23;20197;-89
2021/05/24 02:18:04;;;;;;;4.93;2.43;;;;;;;;;;6164617;23;20212;-92
2021/05/24 02:21:09;;;;;;;2.67;2.03;;;;;;;;;;6164025;23;20197;-90
2021/05/24 02:24:15;;;;;;;4.50;2.37;;;;;;;;;;6164300;23;20220;-90
2021/05/24 02:27:20;;;;;;;4.33;2.60;;;;;;;;;;6165121;23;20173;-90
2021/05/24 02:30:25;;;;;;;4.57;2.57;;;;;;;;;;6166919;23;20216;-90
2021/05/24 02:33:29;;;;;;;8.90;3.00;;;;;;;;;;6166464;23;20192;-91
2021/05/24 02:36:34;;;;;;;9.83;3.57;;;;;;;;;;6166535;23;20169;-92
2021/05/24 02:39:39;;;;;;;5.77;3.70;;;;;;;;;;6166469;23;20179;-91
2021/05/24 02:42:44;;;;;;;7.17;4.00;;;;;;;;;;6165701;23;20699;-91
2021/05/24 02:45:49;;;;;;;9.03;3.87;;;;;;;;;;6165558;23;20219;-91
2021/05/24 02:48:54;;;;;;;5.73;3.63;;;;;;;;;;6166037;23;20200;-91
2021/05/24 02:51:58;;;;;;;6.87;4.27;;;;;;;;;;6165223;23;20164;-91
2021/05/24 02:55:04;;;;;;;5.30;3.83;;;;;;;;;;6164571;23;20193;-89
2021/05/24 02:58:09;;;;;;;5.03;3.53;;;;;;;;;;6165064;23;20168;-91
2021/05/24 03:01:14;;;;;;;8.77;3.53;;;;;;;;;;6165392;23;20199;-92
2021/05/24 03:04:25;;;;;;;6.83;3.40;;;;;;;;;;6166073;23;20216;-91
2021/05/24 03:07:29;;;;;;;6.13;3.50;;;;;;;;;;6166285;23;20244;-89
2021/05/24 03:10:35;;;;;;;6.63;4.07;;;;;;;;;;6165111;23;20172;-91
2021/05/24 03:13:40;;;;;;;7.07;4.40;;;;;;;;;;6164768;23;20176;-90
2021/05/24 03:16:45;;;;;;;8.97;4.17;;;;;;;;;;6165725;23;20200;-90
2021/05/24 03:19:49;;;;;;;5.43;3.83;;;;;;;;;;6167067;23;20159;-90
2021/05/24 03:22:53;;;;;;;6.27;3.53;;;;;;;;;;6166752;23;20227;-90
2021/05/24 03:25:59;;;;;;;6.87;4.30;;;;;;;;;;6166760;23;20266;-88
2021/05/24 03:29:04;;;;;;;7.50;4.40;;;;;;;;;;6166880;23;20203;-90
2021/05/24 03:32:09;;;;;;;8.60;4.60;;;;;;;;;;6165931;23;20168;-91
2021/05/24 03:35:14;;;;;;;7.50;4.73;;;;;;;;;;6166002;23;20188;-90
2021/05/24 03:38:18;;;;;;;11.80;5.03;;;;;;;;;;6166146;23;20216;-90
2021/05/24 03:41:24;;;;;;;7.60;4.97;;;;;;;;;;6165446;23;20249;-90
2021/05/24 03:44:29;;;;;;;6.83;4.10;;;;;;;;;;6163857;23;20180;-89
2021/05/24 03:47:34;;;;;;;9.07;4.17;;;;;;;;;;6165301;23;20223;-88
2021/05/24 03:50:38;;;;;;;7.93;4.00;;;;;;;;;;6165442;23;20227;-89
2021/05/24 03:53:43;;;;;;;9.00;3.00;;;;;;;;;;6165750;23;20172;-90
2021/05/24 03:56:49;;;;;;;6.20;3.20;;;;;;;;;;6164692;23;20217;-90
2021/05/24 03:59:53;;;;;;;10.33;3.00;;;;;;;;;;6167083;23;20173;-88
2021/05/24 04:03:25;;;;;;;4.37;2.87;;;;;;;;;;6166095;23;20195;-89
2021/05/24 04:06:59;;;;;;;8.17;2.50;;;;;;;;;;6165892;23;20173;-89
2021/05/24 04:10:04;;;;;;;9.03;3.20;;;;;;;;;;6165437;23;20175;-90
2021/05/24 04:13:09;;;;;;;3.90;2.63;;;;;;;;;;6163612;23;20288;-89
2021/05/24 04:16:14;;;;;;;4.87;2.30;;;;;;;;;;6165009;23;20171;-89
2021/05/24 04:19:19;;;;;;;3.80;2.50;;;;;;;;;;6162663;23;20491;-91
2021/05/24 04:22:24;;;;;;;2.57;1.93;;;;;;;;;;6164115;23;20241;-91
2021/05/24 04:25:28;;;;;;;3.63;2.07;;;;;;;;;;6164638;23;20192;-91
2021/05/24 04:28:34;;;;;;;5.00;1.97;;;;;;;;;;6165180;23;20231;-91
2021/05/24 04:31:39;;;;;;;3.00;2.00;;;;;;;;;;6166460;23;20628;-90
2021/05/24 04:34:43;;;;;;;7.23;2.37;;;;;;;;;;6164154;23;20215;-88
2021/05/24 04:37:48;;;;;;;6.57;2.63;;;;;;;;;;6164054;23;20225;-90
2021/05/24 04:40:52;;;;;;;5.53;3.03;;;;;;;;;;6163815;23;20261;-89
2021/05/24 04:44:09;;;;;;;6.07;2.57;;;;;;;;;;6163480;23;20279;-89
2021/05/24 04:47:13;;;;;;;3.53;2.40;;;;;;;;;;6163770;23;20176;-89
2021/05/24 04:50:18;;;;;;;4.77;2.43;;;;;;;;;;6164704;23;20191;-89
2021/05/24 04:53:23;;;;;;;3.47;1.97;;;;;;;;;;6163924;23;20184;-90
2021/05/24 04:56:27;;;;;;;2.47;1.90;;;;;;;;;;6162802;23;20180;-90
2021/05/24 04:59:33;;;;;;;4.87;1.70;;;;;;;;;;6165032;23;20164;-89
2021/05/24 05:02:38;;;;;;;2.17;1.40;;;;;;;;;;6164622;23;20395;-90
2021/05/24 05:05:43;;;;;;;2.77;1.83;;;;;;;;;;6165146;23;20184;-90
2021/05/24 05:08:48;;;;;;;3.00;1.90;;;;;;;;;;6165554;23;20188;-89
2021/05/24 05:11:53;;;;;;;3.07;1.63;;;;;;;;;;6166005;23;20211;-88
2021/05/24 05:14:58;;;;;;;6.83;1.70;;;;;;;;;;6167873;23;20168;-91
2021/05/24 05:18:03;;;;;;;2.97;1.80;;;;;;;;;;6165887;23;20221;-89
2021/05/24 05:21:08;;;;;;;2.90;1.90;;;;;;;;;;6165251;23;20196;-90
2021/05/24 05:24:13;;;;;;;4.13;2.17;;;;;;;;;;6166505;23;20215;-91
2021/05/24 05:27:17;;;;;;;5.37;2.30;;;;;;;;;;6165079;23;20168;-91
2021/05/24 05:30:26;;;;;;;4.63;1.70;;;;;;;;;;6170105;23;20168;-89
2021/05/24 05:33:34;;;;;;;3.00;1.70;;;;;;;;;;6165447;23;20212;-90
2021/05/24 05:36:39;;;;;;;3.53;1.53;;;;;;;;;;6164865;23;20192;-91
2021/05/24 05:39:45;;;;;;;6.73;2.30;;;;;;;;;;6165614;23;20193;-90
2021/05/24 05:42:49;;;;;;;3.67;1.70;;;;;;;;;;6166957;23;20208;-91
2021/05/24 05:45:54;;;;;;;4.10;2.08;;;;;;;;;;6166452;23;20171;-90
2021/05/24 05:48:59;;;;;;;4.32;2.17;;;;;;;;;;6171236;23;20216;-90
2021/05/24 05:52:05;;;;;;;5.28;1.60;;;;;;;;;;6170749;23;20486;-93
2021/05/24 05:55:11;;;;;;;2.42;1.70;;;;;;;;;;6171511;23;20207;-90
2021/05/24 05:58:16;;;;;;;3.30;1.70;;;;;;;;;;6167565;23;20189;-92
2021/05/24 06:01:21;;;;;;;7.40;1.80;;;;;;;;;;6169030;23;20242;-93
2021/05/24 06:04:26;;;;;;;2.83;1.77;;;;;;;;;;6168890;23;20668;-91
2021/05/24 06:07:31;;;;;;;3.83;1.75;;;;;;;;;;6169167;23;20168;-92
2021/05/24 06:10:35;;;;;;;2.50;1.70;;;;;;;;;;6168740;23;20196;-91
2021/05/24 06:13:40;;;;;;;4.03;1.90;;;;;;;;;;6168206;23;20172;-93
2021/05/24 06:16:47;;;;;;;3.65;1.90;;;;;;;;;;6168570;23;20172;-91
2021/05/24 06:19:52;;;;;;;2.30;1.55;;;;;;;;;;6170701;23;20288;-91
2021/05/24 06:22:56;;;;;;;2.78;1.42;;;;;;;;;;6168004;23;20651;-90
2021/05/24 06:26:01;;;;;;;3.38;1.33;;;;;;;;;;6171759;23;20236;-92
2021/05/24 06:29:06;;;;;;;5.18;1.70;;;;;;;;;;6172022;23;20241;-90
2021/05/24 06:32:11;;;;;;;2.15;1.50;;;;;;;;;;6171288;23;20189;-89
2021/05/24 06:35:16;;;;;;;3.70;2.10;;;;;;;;;;6168536;23;20224;-89
2021/05/24 06:38:21;;;;;;;7.10;1.70;;;;;;;;;;6169299;23;20486;-90
2021/05/24 06:41:25;;;;;;;3.28;1.73;;;;;;;;;;6167686;23;20220;-90
2021/05/24 06:44:30;;;;;;;6.05;2.17;;;;;;;;;;6168957;23;20486;-91
2021/05/24 06:47:36;;;;;;;3.30;1.80;;;;;;;;;;6167639;23;20289;-93
2021/05/24 06:50:40;;;;;;;4.30;1.70;;;;;;;;;;6166815;23;20257;-91
2021/05/24 06:53:45;;;;;;;2.55;1.63;;;;;;;;;;6169325;23;20229;-92
2021/05/24 06:56:50;;;;;;;4.63;1.52;;;;;;;;;;6171316;23;20169;-92
2021/05/24 06:59:55;;;;;;;2.08;1.40;;;;;;;;;;6169785;23;20164;-91
2021/05/24 07:03:00;;;;;;;2.67;1.08;;;;;;;;;;6167852;23;20184;-90
2021/05/24 07:06:05;;;;;;;2.22;0.90;;;;;;;;;;6166429;23;20201;-92
2021/05/24 07:09:11;;;;;;;1.27;0.80;;;;;;;;;;6167967;23;20247;-89
2021/05/24 07:12:15;;;;;;;2.78;0.80;;;;;;;;;;6167934;23;20176;-90
2021/05/24 07:15:21;;;;;;;7.38;1.20;;;;;;;;;;6168946;23;20196;-91
2021/05/24 07:18:27;;;;;;;2.25;1.10;;;;;;;;;;6168024;23;20180;-93
2021/05/24 07:21:31;;;;;;;6.57;1.02;;;;;;;;;;6168412;23;20184;-91
2021/05/24 07:24:36;;;;;;;8.38;3.15;;;;;;;;;;6167337;23;20220;-91
2021/05/24 07:27:41;;;;;;;2.00;0.90;;;;;;;;;;6150867;23;20546;-92
2021/05/24 07:30:46;;;;;;;4.85;1.00;;;;;;;;;;6152060;23;20688;-92
2021/05/24 07:33:52;;;;;;;4.38;0.65;;;;;;;;;;6148761;23;20213;-90
2021/05/24 07:36:57;;;;;;;5.55;0.98;;;;;;;;;;6150219;23;20173;-88
2021/05/24 07:40:02;;;;;;;2.28;0.90;;;;;;;;;;6150040;23;20189;-90
2021/05/24 07:43:06;;;;;;;1.40;0.73;;;;;;;;;;6150484;23;20212;-91
2021/05/24 07:46:11;;;;;;;0.90;0.43;;;;;;;;;;6150143;23;20176;-90
2021/05/24 07:49:18;;;;;;;1.10;0.68;;;;;;;;;;6148883;23;20188;-91
2021/05/24 07:52:23;;;;;;;2.63;0.77;;;;;;;;;;6148453;23;20169;-90
2021/05/24 07:55:28;;;;;;;0.80;0.50;;;;;;;;;;6148060;23;20502;-89
2021/05/24 07:58:33;;;;;;;2.80;0.60;;;;;;;;;;6151473;23;20172;-89
2021/05/24 08:01:37;;;;;;;1.00;0.55;;;;;;;;;;6149231;23;20276;-90
2021/05/24 08:04:43;;;;;;;1.60;0.70;;;;;;;;;;6148761;23;20177;-89
2021/05/24 08:07:47;;;;;;;3.17;0.68;;;;;;;;;;6156882;23;20239;-89
2021/05/24 08:10:52;;;;;;;2.90;0.80;;;;;;;;;;6151275;23;20188;-91
2021/05/24 08:13:57;;;;;;;1.95;0.70;;;;;;;;;;6147838;23;20215;-91
2021/05/24 08:17:02;;;;;;;2.60;0.73;;;;;;;;;;6152213;23;20221;-91
2021/05/24 08:20:09;;;;;;;4.00;0.63;;;;;;;;;;6150889;23;20172;-92
2021/05/24 08:23:14;;;;;;;2.20;0.70;;;;;;;;;;6153120;23;20316;-90
2021/05/24 08:26:19;;;;;;;1.83;0.60;;;;;;;;;;6163372;23;20196;-90
2021/05/24 08:29:24;;;;;;;2.47;0.70;;;;;;;;;;6167646;23;20609;-91
2021/05/24 08:32:30;;;;;;;3.83;0.60;;;;;;;;;;6168305;23;20212;-90
2021/05/24 08:35:36;;;;;;;2.78;0.60;;;;;;;;;;6168796;23;20220;-93
2021/05/24 08:38:41;;;;;;;1.60;0.60;;;;;;;;;;6169304;23;20639;-92
2021/05/24 08:41:47;;;;;;;1.88;0.90;;;;;;;;;;6167842;23;20269;-91
2021/05/24 08:44:52;;;;;;;2.78;0.80;;;;;;;;;;6172024;23;20177;-90
2021/05/24 08:47:56;;;;;;;2.10;0.57;;;;;;;;;;6173358;23;20171;-91
2021/05/24 08:51:03;;;;;;;3.72;0.70;;;;;;;;;;6169476;23;20245;-91
2021/05/24 08:54:08;;;;;;;3.92;0.65;;;;;;;;;;6170107;23;20164;-93
2021/05/24 08:57:14;;;;;;;0.98;0.50;;;;;;;;;;6169777;23;20168;-91
2021/05/24 09:00:20;;;;;;;0.60;0.50;;;;;;;;;;6168970;23;20160;-91
2021/05/24 09:03:26;;;;;;;1.35;0.60;;;;;;;;;;6170672;23;20180;-90
2021/05/24 09:06:36;;;;;;;1.25;0.60;;;;;;;;;;6167401;23;20192;-91
2021/05/24 09:09:41;;;;;;;2.65;0.65;;;;;;;;;;6170110;23;20249;-91
2021/05/24 09:12:46;;;;;;;0.80;0.50;;;;;;;;;;6168848;23;20228;-92
2021/05/24 09:15:51;;;;;;;4.43;0.60;;;;;;;;;;6168806;23;20222;-92
2021/05/24 09:19:12;;;;;;;3.53;0.70;;;;;;;;;;6167807;23;20172;-91
2021/05/24 09:22:23;;;;;;;1.20;0.60;;;;;;;;;;6168533;23;20201;-90
2021/05/24 09:25:45;;;;;;;2.85;0.50;;;;;;;;;;6172755;23;20667;-89
2021/05/24 09:28:51;;;;;;;0.80;0.52;;;;;;;;;;6199441;23;20184;-90
2021/05/24 09:32:20;;;;;;;3.03;0.60;;;;;;;;;;6198747;23;20192;-91
2021/05/24 09:35:29;;;;;;;2.28;0.60;;;;;;;;;;6182816;23;20231;-91
2021/05/24 09:38:36;;;;;;;0.82;0.60;;;;;;;;;;6199685;23;20180;-89
2021/05/24 09:41:42;;;;;;;5.05;0.57;;;;;;;;;;6200823;23;20315;-90
2021/05/24 09:44:50;;;;;;;3.22;0.60;;;;;;;;;;6184377;23;20188;-92
2021/05/24 09:47:55;;;;;;;1.13;0.60;;;;;;;;;;6201287;23;20176;-86
2021/05/24 09:51:03;;;;;;;3.88;0.70;;;;;;;;;;6199728;23;20623;-91
2021/05/24 09:54:10;;;;;;;2.08;0.60;;;;;;;;;;6179820;23;20215;-92
2021/05/24 09:57:16;;;;;;;1.33;0.70;;;;;;;;;;6180311;23;20175;-91
2021/05/24 10:00:24;;;;;;;3.95;0.55;;;;;;;;;;6200058;23;20208;-91
2021/05/24 10:03:34;;;;;;;0.77;0.65;;;;;;;;;;6182028;23;20196;-90
2021/05/24 10:06:40;;;;;;;1.60;0.68;;;;;;;;;;6181017;23;20179;-90
2021/05/24 10:09:47;;;;;;;1.10;0.57;;;;;;;;;;6198514;23;20172;-90
2021/05/24 10:12:51;;;;;;;3.53;0.90;;;;;;;;;;6201595;23;20199;-91
2021/05/24 10:16:00;;;;;;;10.63;4.72;;;;;;;;;;6198516;23;20197;-91
2021/05/24 10:19:06;;;;;;;11.95;5.40;;;;;;;;;;6198021;23;20172;-91
2021/05/24 10:22:11;;;;;;;17.48;6.88;;;;;;;;;;6196577;23;20264;-91
2021/05/24 10:25:17;;;;;;;15.10;8.02;;;;;;;;;;6197118;23;20163;-91
2021/05/24 10:28:23;;;;;;;26.55;10.85;;;;;;;;;;6181094;23;20159;-92
2021/05/24 10:31:29;;;;;;;20.25;8.25;;;;;;;;;;6179581;23;20239;-91
2021/05/24 10:34:37;;;;;;;21.63;6.75;;;;;;;;;;6181318;23;20225;-90
2021/05/24 10:37:43;;;;;;;7.90;4.30;;;;;;;;;;6200322;23;20217;-91
2021/05/24 10:40:50;;;;;;;6.90;1.85;;;;;;;;;;6198799;23;20171;-90
2021/05/24 10:43:58;;;;;;;6.00;1.10;;;;;;;;;;6197854;23;20183;-90
2021/05/24 10:47:15;;;;;;;4.40;2.20;;;;;;;;;;6199076;23;20168;-90
2021/05/24 10:50:20;;;;;;;12.30;1.33;;;;;;;;;;6201013;23;20171;-91
2021/05/24 10:53:25;;;;;;;2.95;1.05;;;;;;;;;;6200918;23;20186;-91
2021/05/24 10:56:30;;;;;;;1.65;0.70;;;;;;;;;;6186267;23;20219;-93
2021/05/24 10:59:49;;;;;;;1.15;0.73;;;;;;;;;;6199000;23;20167;-93
2021/05/24 11:02:55;;;;;;;1.67;0.90;;;;;;;;;;6201124;23;20200;-91
2021/05/24 11:06:09;;;;;;;10.00;4.10;;;;;;;;;;6199694;23;20172;-91
2021/05/24 11:09:14;;;;;;;2.78;0.93;;;;;;;;;;6201165;23;20192;-91
2021/05/24 11:12:30;;;;;;;2.28;0.80;;;;;;;;;;6201329;23;20176;-92
2021/05/24 14:55:43;;;;;;;5.68;1.48;;;;;;;;;;6105410;23;20211;-89
2021/05/24 14:58:48;;;;;;;3.08;1.45;;;;;;;;;;6136506;23;20228;-90
2021/05/24 15:01:53;;;;;;;6.78;2.20;;;;;;;;;;6174485;23;20196;-90
2021/05/24 15:04:58;;;;;;;3.45;1.33;;;;;;;;;;6174744;23;20184;-91
2021/05/24 15:08:04;;;;;;;5.33;1.67;;;;;;;;;;6173166;23;20397;-89
2021/05/24 15:11:11;;;;;;;4.20;1.65;;;;;;;;;;6171745;23;20403;-90
2021/05/24 15:14:15;;;;;;;5.53;1.80;;;;;;;;;;6170543;23;20171;-91
2021/05/24 15:17:21;;;;;;;4.50;1.30;;;;;;;;;;6173149;23;20188;-92
2021/05/24 15:20:26;;;;;;;3.38;1.40;;;;;;;;;;6156893;23;20176;-92
2021/05/24 15:23:34;;;;;;;5.40;1.40;;;;;;;;;;6175583;23;20192;-92
2021/05/24 15:26:40;;;;;;;7.97;1.30;;;;;;;;;;6175147;23;20184;-91
2021/05/24 15:29:46;;;;;;;5.15;1.70;;;;;;;;;;6174828;23;20201;-90
2021/05/24 15:32:52;;;;;;;3.30;1.90;;;;;;;;;;6173245;23;20171;-90
2021/05/24 15:39:20;;;;;;;7.00;1.38;;;;;;;;;;6171230;23;20196;-92
2021/05/24 15:42:26;;;;;;;5.45;1.48;;;;;;;;;;6153993;23;20214;-92
2021/05/24 15:45:31;;;;;;;1.80;1.10;;;;;;;;;;6171841;23;20221;-91
2021/05/24 15:48:36;;;;;;;2.70;1.25;;;;;;;;;;6157219;23;20168;-91
2021/05/24 15:51:41;;;;;;;2.58;1.30;;;;;;;;;;6156232;23;20176;-92
2021/05/24 15:54:46;;;;;;;6.00;1.70;;;;;;;;;;6173681;23;20197;-92
2021/05/24 15:57:55;;;;;;;3.45;1.40;;;;;;;;;;6191842;23;20358;-90
2021/05/24 16:01:01;;;;;;;3.78;1.60;;;;;;;;;;6172615;23;20244;-92
2021/05/24 16:04:06;;;;;;;3.50;1.42;;;;;;;;;;6174373;23;20172;-92
2021/05/24 16:07:10;;;;;;;2.60;1.15;;;;;;;;;;6172551;23;20519;-92
2021/05/24 16:10:16;;;;;;;4.60;1.30;;;;;;;;;;6170478;23;20153;-92
2021/05/24 16:13:23;;;;;;;3.55;1.13;;;;;;;;;;6188319;23;20156;-92
2021/05/24 16:16:29;;;;;;;4.38;1.35;;;;;;;;;;6174037;23;20575;-92
2021/05/24 16:19:34;;;;;;;3.72;1.63;;;;;;;;;;6192242;23;20168;-90
2021/05/24 16:22:45;;;;;;;4.07;1.40;;;;;;;;;;6171432;23;20195;-91
2021/05/24 16:26:09;;;;;;;5.43;1.50;;;;;;;;;;6187642;23;20216;-91
2021/05/24 16:29:17;;;;;;;3.67;1.45;;;;;;;;;;6186808;23;20176;-92
2021/05/24 16:32:21;;;;;;;8.35;1.90;;;;;;;;;;6188277;23;20192;-92
2021/05/24 16:35:26;;;;;;;6.70;2.05;;;;;;;;;;6171291;23;20192;-92
2021/05/24 16:38:38;;;;;;;4.88;1.90;;;;;;;;;;6170485;23;20288;-92
2021/05/24 16:41:43;;;;;;;2.05;1.45;;;;;;;;;;6169504;23;20238;-91
2021/05/24 16:44:49;;;;;;;4.43;1.95;;;;;;;;;;6169685;23;20209;-91
2021/05/24 16:47:53;;;;;;;5.85;2.50;;;;;;;;;;6187900;23;20192;-93
2021/05/24 16:50:59;;;;;;;9.77;4.38;;;;;;;;;;6167525;23;20316;-91
2021/05/24 16:54:07;;;;;;;4.78;1.90;;;;;;;;;;6169819;23;20206;-91
2021/05/24 16:57:12;;;;;;;4.90;2.35;;;;;;;;;;6170996;23;20335;-90
2021/05/24 17:00:18;;;;;;;4.85;1.63;;;;;;;;;;6190088;23;20241;-91
2021/05/24 17:03:24;;;;;;;3.63;1.70;;;;;;;;;;6171050;23;20196;-92
2021/05/24 17:06:29;;;;;;;5.50;1.80;;;;;;;;;;6171483;23;20615;-91
2021/05/24 17:09:34;;;;;;;3.65;1.92;;;;;;;;;;6189585;23;20220;-92
2021/05/24 17:12:38;;;;;;;5.10;2.05;;;;;;;;;;6167581;23;20169;-91
2021/05/24 17:15:44;;;;;;;5.07;2.00;;;;;;;;;;6169859;23;20197;-92
2021/05/24 17:18:48;;;;;;;5.43;2.03;;;;;;;;;;6169358;23;20172;-92
2021/05/24 17:21:53;;;;;;;7.15;1.80;;;;;;;;;;6168183;23;20252;-91
2021/05/24 17:24:58;;;;;;;5.35;2.00;;;;;;;;;;6167830;23;20196;-91
2021/05/24 17:28:03;;;;;;;8.57;2.10;;;;;;;;;;6168738;23;20259;-91
2021/05/24 17:31:09;;;;;;;4.72;2.03;;;;;;;;;;6186503;23;20172;-91
2021/05/24 17:34:14;;;;;;;4.50;2.03;;;;;;;;;;6165648;23;20619;-91
2021/05/24 17:37:19;;;;;;;4.55;2.00;;;;;;;;;;6186934;23;20192;-89
2021/05/24 17:40:26;;;;;;;17.08;6.35;;;;;;;;;;6171816;23;20184;-89
2021/05/24 17:43:32;;;;;;;5.78;3.20;;;;;;;;;;6173609;23;20236;-92
2021/05/24 17:46:39;;;;;;;8.00;3.53;;;;;;;;;;6173671;23;20216;-91
2021/05/24 17:49:44;;;;;;;6.18;2.60;;;;;;;;;;6171428;23;20205;-91
2021/05/24 17:52:51;;;;;;;7.00;2.25;;;;;;;;;;6170371;23;20172;-89
2021/05/24 17:55:56;;;;;;;6.43;2.10;;;;;;;;;;6188168;23;20510;-91
2021/05/24 17:59:01;;;;;;;6.07;2.45;;;;;;;;;;6173930;23;20172;-90
2021/05/24 18:02:07;;;;;;;5.20;2.28;;;;;;;;;;6156705;23;20211;-89
2021/05/24 18:05:13;;;;;;;8.18;1.90;;;;;;;;;;6172979;23;20159;-90
2021/05/24 18:08:17;;;;;;;7.18;2.40;;;;;;;;;;6173527;23;20195;-89
2021/05/24 18:11:24;;;;;;;3.83;1.92;;;;;;;;;;6178329;23;20156;-90
2021/05/24 18:14:32;;;;;;;6.45;1.90;;;;;;;;;;6180812;23;20224;-91
2021/05/24 18:17:40;;;;;;;8.13;1.80;;;;;;;;;;6160269;23;20190;-91
2021/05/24 18:20:47;;;;;;;7.55;2.25;;;;;;;;;;6143563;23;20405;-92
2021/05/24 18:23:52;;;;;;;7.00;2.30;;;;;;;;;;6177320;23;20199;-89
2021/05/24 18:27:06;;;;;;;5.22;2.20;;;;;;;;;;6159550;23;20165;-90
2021/05/24 18:30:16;;;;;;;5.18;2.30;;;;;;;;;;6177544;23;20165;-90
2021/05/24 18:33:27;;;;;;;8.95;2.90;;;;;;;;;;6175951;23;20176;-89
2021/05/24 18:36:32;;;;;;;5.45;2.30;;;;;;;;;;6175420;23;20165;-91
2021/05/24 18:39:39;;;;;;;10.07;2.40;;;;;;;;;;6177157;23;20188;-90
2021/05/24 18:42:45;;;;;;;7.72;2.67;;;;;;;;;;6177624;23;20196;-93
2021/05/24 18:45:50;;;;;;;5.78;2.05;;;;;;;;;;6174114;23;20239;-91
2021/05/24 18:48:55;;;;;;;5.80;2.40;;;;;;;;;;6173907;23;20164;-91
2021/05/24 18:52:00;;;;;;;7.55;2.67;;;;;;;;;;6175006;23;20224;-91
2021/05/24 18:55:06;;;;;;;7.35;2.53;;;;;;;;;;6157043;23;20216;-92
2021/05/24 18:58:11;;;;;;;6.65;2.67;;;;;;;;;;6175756;23;20192;-93
2021/05/24 19:01:18;;;;;;;4.57;2.30;;;;;;;;;;6157247;23;20164;-91
2021/05/24 19:04:28;;;;;;;6.55;2.50;;;;;;;;;;6175994;23;20181;-91
2021/05/24 19:07:33;;;;;;;9.38;2.63;;;;;;;;;;6175505;23;20217;-91
2021/05/24 19:10:38;;;;;;;3.85;2.30;;;;;;;;;;6154251;23;20228;-91
2021/05/24 19:13:45;;;;;;;4.18;2.22;;;;;;;;;;6169801;23;20193;-89
2021/05/24 19:16:50;;;;;;;5.93;2.40;;;;;;;;;;6170946;23;20188;-91
2021/05/24 19:19:56;;;;;;;4.35;2.00;;;;;;;;;;6154845;23;20184;-91
2021/05/24 19:23:01;;;;;;;4.78;2.10;;;;;;;;;;6172213;23;20196;-91
2021/05/24 19:26:07;;;;;;;4.55;2.10;;;;;;;;;;6155112;23;20173;-94
2021/05/24 19:29:13;;;;;;;7.97;2.58;;;;;;;;;;6154742;23;20247;-91
2021/05/24 19:32:18;;;;;;;3.05;2.05;;;;;;;;;;6172475;23;20180;-91
2021/05/24 19:35:24;;;;;;;5.38;2.38;;;;;;;;;;6155511;23;20172;-89
2021/05/24 19:38:31;;;;;;;6.28;2.50;;;;;;;;;;6173910;23;20204;-90
2021/05/24 19:41:36;;;;;;;6.82;2.40;;;;;;;;;;6171931;23;20169;-90
2021/05/24 19:44:41;;;;;;;4.97;2.28;;;;;;;;;;6173294;23;20196;-91
2021/05/24 20:25:06;;;;;;;5.20;2.50;;;;;;;;;;6175692;23;20172;-91
2021/05/24 20:28:11;;;;;;;6.45;3.63;;;;;;;;;;6155303;23;20534;-90
2021/05/24 20:31:17;;;;;;;8.32;3.67;;;;;;;;;;6174010;23;20184;-91
2021/05/24 20:34:30;;;;;;;4.88;2.90;;;;;;;;;;6176639;23;20506;-89
2021/05/24 20:37:35;;;;;;;9.43;3.53;;;;;;;;;;6174812;23;20201;-90
2021/05/24 20:40:40;;;;;;;6.93;3.00;;;;;;;;;;6173317;23;20200;-89
2021/05/24 20:43:46;;;;;;;5.80;2.90;;;;;;;;;;6173123;23;20200;-90
2021/05/24 20:46:51;;;;;;;6.10;2.47;;;;;;;;;;6156523;23;20196;-88
2021/05/24 20:50:00;;;;;;;5.30;2.03;;;;;;;;;;6154449;23;20213;-89
2021/05/24 20:53:05;;;;;;;2.55;1.70;;;;;;;;;;6157034;23;20172;-90
2021/05/24 20:56:11;;;;;;;3.92;1.65;;;;;;;;;;6155302;23;20256;-89
2021/05/24 20:59:17;;;;;;;5.72;1.90;;;;;;;;;;6171539;23;20180;-89
2021/05/24 21:02:22;;;;;;;3.65;1.73;;;;;;;;;;6172427;23;20196;-89
2021/05/24 21:05:27;;;;;;;4.03;1.85;;;;;;;;;;6157607;23;20672;-89
2021/05/24 21:08:31;;;;;;;4.28;1.73;;;;;;;;;;6173043;23;20167;-90
2021/05/24 21:11:37;;;;;;;3.55;2.15;;;;;;;;;;6172440;23;20226;-91
2021/05/24 21:14:42;;;;;;;3.22;1.90;;;;;;;;;;6171001;23;20211;-90
2021/05/24 21:17:47;;;;;;;4.38;1.80;;;;;;;;;;6152495;23;20172;-90
2021/05/24 21:20:51;;;;;;;6.00;1.90;;;;;;;;;;6170958;23;20195;-90
2021/05/24 21:23:56;;;;;;;7.70;2.17;;;;;;;;;;6171314;23;20300;-90
2021/05/24 21:27:01;;;;;;;3.63;1.67;;;;;;;;;;6155430;23;20173;-88
2021/05/24 21:30:07;;;;;;;4.15;1.67;;;;;;;;;;6171912;23;20176;-90
2021/05/24 21:33:22;;;;;;;4.05;1.80;;;;;;;;;;6171351;23;20212;-90
2021/05/24 21:36:27;;;;;;;5.97;2.08;;;;;;;;;;6153334;23;20192;-90
2021/05/24 21:39:31;;;;;;;4.18;2.00;;;;;;;;;;6153321;23;20208;-89
2021/05/24 21:42:37;;;;;;;6.35;1.90;;;;;;;;;;6170466;23;20204;-90
2021/05/24 21:45:42;;;;;;;3.97;1.98;;;;;;;;;;6170503;23;20168;-90
2021/05/24 21:48:46;;;;;;;3.33;2.08;;;;;;;;;;6170339;23;20671;-91
2021/05/24 21:51:51;;;;;;;7.43;2.08;;;;;;;;;;6168461;23;20249;-91
2021/05/24 21:54:56;;;;;;;4.97;2.35;;;;;;;;;;6175318;23;20246;-90
2021/05/24 21:58:02;;;;;;;3.53;1.90;;;;;;;;;;6175767;23;20188;-89
2021/05/24 22:01:08;;;;;;;6.43;2.00;;;;;;;;;;6174075;23;20173;-91
2021/05/24 22:04:12;;;;;;;6.95;2.00;;;;;;;;;;6169782;23;20192;-91
2021/05/24 22:07:19;;;;;;;4.72;2.28;;;;;;;;;;6169989;23;20197;-91
2021/05/24 22:10:24;;;;;;;5.63;1.92;;;;;;;;;;6167705;23;20173;-91
2021/05/24 22:13:30;;;;;;;4.63;1.80;;;;;;;;;;6167000;23;20167;-91
2021/05/24 22:16:34;;;;;;;2.95;1.80;;;;;;;;;;6169562;23;20196;-90
2021/05/24 22:19:42;;;;;;;3.72;1.75;;;;;;;;;;6168941;23;20176;-92
2021/05/24 22:22:48;;;;;;;4.68;1.75;;;;;;;;;;6149863;23;20196;-91
2021/05/24 22:25:52;;;;;;;5.13;2.30;;;;;;;;;;6164709;23;20168;-90
2021/05/24 22:28:58;;;;;;;2.95;2.08;;;;;;;;;;6165825;23;20173;-90
2021/05/24 22:32:04;;;;;;;2.88;1.70;;;;;;;;;;6166260;23;20160;-90
2021/05/24 22:35:10;;;;;;;4.25;1.60;;;;;;;;;;6167735;23;20160;-91
2021/05/24 22:38:17;;;;;;;4.95;2.00;;;;;;;;;;6169225;23;20173;-92
2021/05/24 22:41:22;;;;;;;5.35;2.05;;;;;;;;;;6169443;23;20168;-91
2021/05/24 22:44:27;;;;;;;4.10;1.80;;;;;;;;;;6168510;23;20228;-91
2021/05/24 22:47:32;;;;;;;4.10;1.67;;;;;;;;;;6170928;23;20184;-91
2021/05/24 22:50:37;;;;;;;3.25;1.98;;;;;;;;;;6165320;23;20180;-91
2021/05/24 22:53:41;;;;;;;2.53;1.77;;;;;;;;;;6166929;23;20229;-92
2021/05/24 22:56:46;;;;;;;5.32;2.10;;;;;;;;;;6150895;23;20196;-92